createdAt,value
2019-04-11T00:01:54.683Z,29.12
2019-04-11T00:04:24.814Z,27.35
2019-04-11T00:06:56.060Z,30.90
2019-04-11T00:09:27.011Z,30.50
2019-04-11T00:11:57.887Z,30.70
2019-04-11T00:14:27.974Z,29.65
2019-04-11T00:17:01.644Z,33.83
2019-04-11T00:19:31.789Z,29.12
2019-04-11T00:22:01.871Z,28.20
2019-04-11T00:24:31.879Z,29.12
2019-04-11T00:27:02.495Z,26.12
2019-04-11T00:29:34.443Z,28.45
2019-04-11T00:32:06.606Z,26.90
2019-04-11T00:34:37.338Z,27.93
2019-04-11T00:37:08.567Z,22.90
2019-04-11T00:39:39.830Z,26.12
2019-04-11T00:42:10.350Z,27.02
2019-04-11T00:44:41.148Z,26.50
2019-04-11T00:47:11.268Z,22.52
2019-04-11T00:49:42.957Z,25.37
2019-04-11T00:52:14.240Z,22.02
2019-04-11T00:54:44.836Z,22.55
2019-04-11T00:57:14.912Z,21.35
2019-04-11T00:59:45.102Z,23.27
2019-04-11T01:02:15.619Z,19.02
2019-04-11T01:04:45.685Z,22.35
2019-04-11T01:07:16.548Z,22.42
2019-04-11T01:09:46.510Z,19.67
2019-04-11T01:12:16.611Z,21.70
2019-04-11T01:14:46.904Z,20.17
2019-04-11T01:17:17.175Z,21.02
2019-04-11T01:19:47.114Z,19.20
2019-04-11T01:22:18.110Z,24.20
2019-04-11T01:24:48.768Z,22.00
2019-04-11T01:27:18.829Z,22.93
2019-04-11T01:29:49.504Z,23.40
2019-04-11T01:32:23.073Z,20.88
2019-04-11T01:34:55.087Z,24.32
2019-04-11T01:37:26.007Z,21.33
2019-04-11T01:40:01.377Z,22.75
2019-04-11T01:42:33.480Z,23.83
2019-04-11T01:45:05.239Z,24.63
2019-04-11T01:47:37.379Z,24.70
2019-04-11T01:50:08.446Z,23.12
2019-04-11T01:52:38.824Z,22.62
2019-04-11T01:55:10.065Z,28.80
2019-04-11T01:57:40.288Z,23.27
2019-04-11T02:00:13.456Z,26.93
2019-04-11T02:02:51.157Z,26.33
2019-04-11T02:05:27.208Z,21.90
2019-04-11T02:07:58.736Z,24.63
2019-04-11T02:10:28.959Z,24.18
2019-04-11T02:12:59.644Z,22.95
2019-04-11T02:15:30.919Z,25.23
2019-04-11T02:18:01.352Z,24.55
2019-04-11T02:20:31.517Z,24.15
2019-04-11T02:23:04.549Z,23.98
2019-04-11T02:25:42.878Z,27.35
2019-04-11T02:28:14.786Z,25.05
2019-04-11T02:30:48.466Z,26.57
2019-04-11T02:33:18.490Z,24.00
2019-04-11T02:35:49.489Z,24.47
2019-04-11T02:38:21.495Z,20.88
2019-04-11T02:40:52.572Z,24.37
2019-04-11T02:43:23.547Z,21.87
2019-04-11T02:46:08.794Z,22.35
2019-04-11T02:48:26.977Z,22.35
2019-04-11T02:50:58.414Z,20.65
2019-04-11T02:53:30.026Z,24.85
2019-04-11T02:56:01.113Z,26.00
2019-04-11T02:58:32.252Z,24.32
2019-04-11T03:01:04.990Z,24.00
2019-04-11T03:03:34.658Z,29.05
2019-04-11T03:06:04.655Z,20.00
2019-04-11T03:08:36.297Z,23.52
2019-04-11T03:11:07.761Z,21.62
2019-04-11T03:13:38.499Z,19.17
2019-04-11T03:16:24.982Z,21.57
2019-04-11T03:18:55.658Z,20.95
2019-04-11T03:21:17.947Z,20.08
2019-04-11T03:23:44.254Z,19.80
2019-04-11T03:26:14.320Z,16.60
2019-04-11T03:28:47.515Z,18.75
2019-04-11T03:31:58.337Z,18.70
2019-04-11T03:34:44.393Z,20.00
2019-04-11T03:37:06.836Z,20.35
2019-04-11T03:39:11.621Z,18.02
2019-04-11T03:41:38.756Z,21.60
2019-04-11T03:44:04.268Z,18.10
2019-04-11T03:46:44.655Z,23.20
2019-04-11T03:49:06.167Z,17.30
2019-04-11T03:51:30.532Z,19.20
2019-04-11T03:54:01.724Z,22.22
2019-04-11T03:56:32.955Z,18.02
2019-04-11T03:59:04.057Z,20.23
2019-04-11T04:01:35.107Z,19.05
2019-04-11T04:04:06.613Z,22.60
2019-04-11T04:06:37.948Z,24.02
2019-04-11T04:09:10.818Z,18.80
2019-04-11T04:11:44.850Z,20.02
2019-04-11T04:14:21.314Z,19.75
2019-04-11T04:17:11.483Z,21.50
2019-04-11T04:19:43.745Z,19.73
2019-04-11T04:22:16.589Z,20.27
2019-04-11T04:24:49.696Z,22.93
2019-04-11T04:27:23.309Z,23.35
2019-04-11T04:29:57.269Z,20.75
2019-04-11T04:32:25.137Z,23.15
2019-04-11T04:34:56.226Z,19.45
2019-04-11T04:37:29.441Z,19.40
2019-04-11T04:40:21.590Z,20.97
2019-04-11T04:42:37.046Z,26.00
2019-04-11T04:45:09.557Z,24.15
2019-04-11T04:47:46.831Z,21.07
2019-04-11T04:50:11.125Z,22.95
2019-04-11T04:52:42.911Z,23.62
2019-04-11T04:55:13.398Z,22.60
2019-04-11T04:57:44.955Z,21.97
2019-04-11T05:00:16.063Z,24.92
2019-04-11T05:02:47.895Z,22.07
2019-04-11T05:05:19.615Z,27.65
2019-04-11T05:07:49.934Z,21.70
2019-04-11T05:10:20.140Z,20.75
2019-04-11T05:12:51.388Z,22.10
2019-04-11T05:15:21.616Z,19.90
2019-04-11T05:17:53.199Z,20.97
2019-04-11T05:20:23.843Z,19.80
2019-04-11T05:22:54.102Z,19.52
2019-04-11T05:25:25.028Z,19.87
2019-04-11T05:27:55.986Z,22.00
2019-04-11T05:30:27.195Z,24.32
2019-04-11T05:32:57.760Z,23.18
2019-04-11T05:35:27.829Z,21.33
2019-04-11T05:37:57.977Z,24.20
2019-04-11T05:40:28.222Z,23.52
2019-04-11T05:42:58.241Z,23.85
2019-04-11T05:45:28.282Z,21.23
2019-04-11T05:47:58.656Z,23.07
2019-04-11T05:50:30.035Z,21.68
2019-04-11T05:53:03.435Z,24.60
2019-04-11T05:55:34.224Z,24.27
2019-04-11T05:58:08.661Z,19.62
2019-04-11T06:00:39.123Z,23.15
2019-04-11T06:03:10.122Z,22.58
2019-04-11T06:05:44.713Z,22.77
2019-04-11T06:08:23.506Z,24.12
2019-04-11T06:11:06.787Z,21.27
2019-04-11T06:13:50.942Z,25.75
2019-04-11T06:16:21.003Z,24.27
2019-04-11T06:19:01.643Z,27.50
2019-04-11T06:21:42.507Z,25.97
2019-04-11T06:24:18.202Z,24.77
2019-04-11T06:27:08.911Z,26.33
2019-04-11T06:29:59.497Z,25.10
2019-04-11T06:32:32.209Z,28.90
2019-04-11T06:35:13.594Z,27.75
2019-04-11T06:38:02.578Z,28.15
2019-04-11T06:41:02.630Z,27.65
2019-04-11T06:43:34.272Z,26.02
2019-04-11T06:46:25.058Z,25.68
2019-04-11T06:48:56.530Z,24.92
2019-04-11T06:51:30.975Z,26.17
2019-04-11T06:54:06.360Z,26.30
2019-04-11T06:56:38.163Z,28.27
2019-04-11T06:59:10.138Z,26.30
2019-04-11T07:01:42.632Z,26.85
2019-04-11T07:04:30.935Z,25.37
2019-04-11T07:07:04.584Z,25.25
2019-04-11T07:09:39.437Z,25.70
2019-04-11T07:12:20.527Z,25.25
2019-04-11T07:14:55.190Z,24.12
2019-04-11T07:17:45.973Z,25.27
2019-04-11T07:20:33.993Z,27.80
2019-04-11T07:23:22.233Z,27.55
2019-04-11T07:25:56.727Z,24.60
2019-04-11T07:28:41.695Z,25.25
2019-04-11T07:31:33.078Z,25.72
2019-04-11T07:34:14.937Z,25.52
2019-04-11T07:37:04.424Z,28.02
2019-04-11T07:39:53.452Z,23.38
2019-04-11T07:42:25.949Z,25.80
2019-04-11T07:44:57.799Z,24.65
2019-04-11T07:47:32.359Z,23.18
2019-04-11T07:50:04.129Z,29.82
2019-04-11T07:52:36.032Z,27.82
2019-04-11T07:55:06.758Z,28.60
2019-04-11T07:57:41.203Z,26.60
2019-04-11T08:00:15.059Z,25.77
2019-04-11T08:03:04.111Z,26.12
2019-04-11T08:05:52.589Z,27.13
2019-04-11T08:08:25.707Z,25.25
2019-04-11T08:11:15.915Z,24.77
2019-04-11T08:13:53.131Z,24.35
2019-04-11T08:16:40.259Z,27.15
2019-04-11T08:19:13.099Z,28.55
2019-04-11T08:21:56.990Z,28.92
2019-04-11T08:24:37.509Z,29.37
2019-04-11T08:27:25.556Z,29.00
2019-04-11T08:29:58.342Z,34.43
2019-04-11T08:32:47.429Z,33.63
2019-04-11T08:35:28.377Z,29.60
2019-04-11T08:38:01.140Z,35.17
2019-04-11T08:40:33.600Z,30.40
2019-04-11T08:43:06.584Z,31.48
2019-04-11T08:45:40.318Z,30.75
2019-04-11T08:48:12.891Z,32.95
2019-04-11T08:50:44.947Z,30.85
2019-04-11T08:53:20.514Z,33.70
2019-04-11T08:55:56.253Z,39.05
2019-04-11T08:58:33.103Z,31.17
2019-04-11T09:01:05.455Z,32.63
2019-04-11T09:03:42.004Z,36.53
2019-04-11T09:06:14.704Z,36.55
2019-04-11T09:09:04.906Z,35.38
2019-04-11T09:11:39.130Z,33.18
2019-04-11T09:14:28.286Z,30.32
2019-04-11T09:17:00.078Z,36.83
2019-04-11T09:19:49.333Z,39.85
2019-04-11T09:22:37.540Z,31.73
2019-04-11T09:25:10.902Z,32.88
2019-04-11T09:27:45.523Z,29.05
2019-04-11T09:30:23.324Z,29.35
2019-04-11T09:33:04.719Z,34.35
2019-04-11T09:35:49.224Z,38.75
2019-04-11T09:38:24.995Z,37.60
2019-04-11T09:40:58.688Z,41.85
2019-04-11T09:43:31.679Z,49.35
2019-04-11T09:46:03.832Z,43.15
2019-04-11T09:48:35.637Z,40.05
2019-04-11T09:51:13.472Z,41.73
2019-04-11T09:53:57.844Z,39.98
2019-04-11T09:56:36.369Z,40.75
2019-04-11T09:59:16.428Z,40.23
2019-04-11T10:01:58.252Z,38.17
2019-04-11T10:04:29.951Z,39.78
2019-04-11T10:07:11.132Z,37.10
2019-04-11T10:10:02.584Z,36.13
2019-04-11T10:12:38.317Z,38.50
2019-04-11T10:15:09.783Z,38.28
2019-04-11T10:17:42.486Z,38.70
2019-04-11T10:20:18.211Z,37.40
2019-04-11T10:23:05.197Z,32.03
2019-04-11T10:25:40.221Z,33.95
2019-04-11T10:28:30.294Z,29.75
2019-04-11T10:31:06.477Z,27.65
2019-04-11T10:33:55.447Z,27.70
2019-04-11T10:36:33.425Z,25.88
2019-04-11T10:39:21.550Z,27.48
2019-04-11T10:41:53.805Z,24.92
2019-04-11T10:44:28.403Z,24.37
2019-04-11T10:46:59.875Z,22.93
2019-04-11T10:49:44.217Z,25.50
2019-04-11T10:52:15.649Z,26.15
2019-04-11T10:54:49.110Z,23.20
2019-04-11T10:57:21.489Z,28.23
2019-04-11T10:59:52.939Z,27.52
2019-04-11T11:02:25.156Z,27.22
2019-04-11T11:04:57.044Z,23.73
2019-04-11T11:07:28.762Z,24.05
2019-04-11T11:10:12.123Z,23.30
2019-04-11T11:12:43.850Z,24.27
2019-04-11T11:15:15.702Z,23.87
2019-04-11T11:18:35.057Z,24.57
2019-04-11T11:20:50.183Z,24.77
2019-04-11T11:23:18.351Z,21.12
2019-04-11T11:25:53.349Z,21.87
2019-04-11T11:28:28.369Z,25.95
2019-04-11T11:31:03.258Z,24.37
2019-04-11T11:33:35.156Z,25.55
2019-04-11T11:36:17.229Z,22.30
2019-04-11T11:39:01.171Z,19.87
2019-04-11T11:41:34.907Z,20.27
2019-04-11T11:44:07.587Z,22.65
2019-04-11T11:46:48.671Z,21.52
2019-04-11T11:49:32.701Z,19.98
2019-04-11T11:52:04.360Z,22.20
2019-04-11T11:54:36.020Z,20.57
2019-04-11T11:57:08.683Z,22.42
2019-04-11T11:59:46.610Z,25.15
2019-04-11T12:02:20.868Z,21.27
2019-04-11T12:04:52.012Z,22.35
2019-04-11T12:07:33.786Z,24.82
2019-04-11T12:10:06.815Z,22.02
2019-04-11T12:12:42.108Z,26.35
2019-04-11T12:15:30.343Z,23.90
2019-04-11T12:18:11.103Z,22.17
2019-04-11T12:20:49.355Z,21.12
2019-04-11T12:23:27.338Z,21.45
2019-04-11T12:25:57.717Z,25.57
2019-04-11T12:28:37.226Z,25.05
2019-04-11T12:31:09.277Z,21.85
2019-04-11T12:33:43.787Z,20.40
2019-04-11T12:36:16.882Z,21.80
2019-04-11T12:39:05.273Z,23.10
2019-04-11T12:41:37.518Z,20.00
2019-04-11T12:44:09.169Z,20.45
2019-04-11T12:46:56.159Z,22.13
2019-04-11T12:49:27.834Z,24.40
2019-04-11T12:52:16.237Z,25.95
2019-04-11T12:54:47.817Z,22.07
2019-04-11T12:57:34.507Z,21.45
2019-04-11T13:00:10.594Z,24.90
2019-04-11T13:02:46.411Z,27.30
2019-04-11T13:05:21.119Z,27.10
2019-04-11T13:07:52.903Z,23.20
2019-04-11T13:10:24.209Z,25.50
2019-04-11T13:13:12.678Z,26.62
2019-04-11T13:15:44.272Z,23.70
2019-04-11T13:18:22.079Z,22.93
2019-04-11T13:21:02.960Z,24.52
2019-04-11T13:23:51.198Z,19.95
2019-04-11T13:26:22.859Z,23.85
2019-04-11T13:29:03.594Z,19.60
2019-04-11T13:31:47.455Z,20.90
2019-04-11T13:34:19.352Z,19.67
2019-04-11T13:36:51.161Z,22.42
2019-04-11T13:39:22.087Z,23.70
2019-04-11T13:42:05.595Z,17.32
2019-04-11T13:44:36.136Z,22.50
2019-04-11T13:47:24.290Z,22.32
2019-04-11T13:49:55.942Z,18.20
2019-04-11T13:52:39.474Z,22.30
2019-04-11T13:55:11.484Z,19.60
2019-04-11T13:57:59.572Z,19.90
2019-04-11T14:00:40.789Z,18.45
2019-04-11T14:03:28.987Z,18.10
2019-04-11T14:06:00.618Z,18.05
2019-04-11T14:08:32.260Z,20.20
2019-04-11T14:11:09.911Z,17.85
2019-04-11T14:13:44.711Z,19.90
2019-04-11T14:16:19.112Z,17.57
2019-04-11T14:19:02.886Z,17.67
2019-04-11T14:21:34.012Z,21.45
2019-04-11T14:24:17.792Z,19.15
2019-04-11T14:27:04.521Z,20.20
2019-04-11T14:29:42.439Z,16.90
2019-04-11T14:32:17.317Z,17.27
2019-04-11T14:35:05.550Z,18.70
2019-04-11T14:37:42.875Z,19.70
2019-04-11T14:40:21.272Z,18.35
2019-04-11T14:42:58.974Z,17.48
2019-04-11T14:45:45.642Z,19.80
2019-04-11T14:48:26.654Z,20.32
2019-04-11T14:51:04.316Z,24.07
2019-04-11T14:53:54.168Z,28.52
2019-04-11T14:56:29.075Z,20.62
2019-04-11T14:59:07.054Z,22.02
2019-04-11T15:01:37.084Z,26.93
2019-04-11T15:04:20.859Z,27.27
2019-04-11T15:06:58.395Z,21.48
2019-04-11T15:09:49.186Z,24.98
2019-04-11T15:12:23.694Z,23.47
2019-04-11T15:14:58.106Z,20.50
2019-04-11T15:17:32.249Z,24.77
2019-04-11T15:20:04.086Z,26.40
2019-04-11T15:22:39.320Z,25.68
2019-04-11T15:25:22.860Z,24.72
2019-04-11T15:28:12.579Z,27.22
2019-04-11T15:30:48.556Z,32.58
2019-04-11T15:33:29.365Z,33.05
2019-04-11T15:36:02.226Z,30.52
2019-04-11T15:38:50.135Z,31.48
2019-04-11T15:41:20.539Z,35.78
2019-04-11T15:43:52.221Z,31.80
2019-04-11T15:46:26.854Z,32.70
2019-04-11T15:49:21.130Z,28.38
2019-04-11T15:51:50.419Z,25.52
2019-04-11T15:54:38.678Z,23.87
2019-04-11T15:57:12.773Z,26.10
2019-04-11T15:59:46.540Z,27.07
2019-04-11T16:02:18.202Z,26.73
2019-04-11T16:04:49.853Z,26.97
2019-04-11T16:07:21.781Z,28.87
2019-04-11T16:09:53.487Z,24.45
2019-04-11T16:12:31.467Z,26.40
2019-04-11T16:15:09.030Z,21.73
2019-04-11T16:17:42.390Z,25.72
2019-04-11T16:20:13.299Z,24.43
2019-04-11T16:22:55.471Z,26.25
2019-04-11T16:25:29.016Z,27.35
2019-04-11T16:28:10.828Z,23.67
2019-04-11T16:30:42.821Z,25.02
2019-04-11T16:33:30.762Z,24.63
2019-04-11T16:36:20.516Z,25.52
2019-04-11T16:39:11.249Z,27.55
2019-04-11T16:41:55.017Z,24.25
2019-04-11T16:44:29.562Z,25.48
2019-04-11T16:47:03.951Z,26.50
2019-04-11T16:49:34.074Z,26.57
2019-04-11T16:52:07.569Z,25.55
2019-04-11T16:54:39.710Z,29.37
2019-04-11T16:57:07.605Z,30.08
2019-04-11T16:59:37.762Z,29.18
2019-04-11T17:02:08.021Z,29.50
2019-04-11T17:04:38.366Z,31.42
2019-04-11T17:07:26.622Z,28.70
2019-04-11T17:10:01.422Z,31.17
2019-04-11T17:12:33.040Z,34.23
2019-04-11T17:15:03.097Z,31.12
2019-04-11T17:17:33.273Z,36.30
2019-04-11T17:20:06.461Z,44.55
2019-04-11T17:22:36.757Z,48.83
2019-04-11T17:25:07.035Z,52.80
2019-04-11T17:27:37.048Z,59.23
2019-04-11T17:30:07.842Z,46.95
2019-04-11T17:32:37.973Z,40.58
2019-04-11T17:35:08.362Z,39.55
2019-04-11T17:37:38.393Z,43.02
2019-04-11T17:40:09.320Z,39.18
2019-04-11T17:42:39.267Z,36.85
2019-04-11T17:45:09.640Z,37.42
2019-04-11T17:47:39.837Z,39.33
2019-04-11T17:50:10.104Z,35.05
2019-04-11T17:52:40.789Z,35.03
2019-04-11T17:55:10.811Z,39.70
2019-04-11T17:57:40.841Z,40.58
2019-04-11T18:00:12.800Z,40.12
2019-04-11T18:02:42.788Z,36.93
2019-04-11T18:05:16.959Z,37.65
2019-04-11T18:07:46.989Z,42.33
2019-04-11T18:10:16.534Z,39.53
2019-04-11T18:12:46.473Z,38.80
2019-04-11T18:15:16.914Z,34.63
2019-04-11T18:17:46.909Z,32.83
2019-04-11T18:20:16.851Z,38.35
2019-04-11T18:22:50.181Z,35.28
2019-04-11T18:25:20.799Z,36.33
2019-04-11T18:27:52.393Z,36.93
2019-04-11T18:30:23.305Z,39.85
2019-04-11T18:32:54.025Z,36.85
2019-04-11T18:35:24.086Z,35.95
2019-04-11T18:37:54.599Z,38.45
2019-04-11T18:40:25.342Z,37.35
2019-04-11T18:42:55.647Z,38.53
2019-04-11T18:45:25.882Z,40.17
2019-04-11T18:47:57.222Z,36.75
2019-04-11T18:50:28.842Z,42.73
2019-04-11T18:53:00.082Z,41.75
2019-04-11T18:55:30.163Z,35.83
2019-04-11T18:58:01.712Z,40.50
2019-04-11T19:00:31.926Z,43.85
2019-04-11T19:03:02.342Z,40.35
2019-04-11T19:05:32.388Z,44.10
2019-04-11T19:08:02.401Z,45.33
2019-04-11T19:10:32.467Z,41.20
2019-04-11T19:13:02.451Z,43.17
2019-04-11T19:15:32.474Z,44.03
2019-04-11T19:18:06.810Z,44.30
2019-04-11T19:20:34.280Z,43.63
2019-04-11T19:23:07.629Z,42.70
2019-04-11T19:25:36.018Z,41.48
2019-04-11T19:28:06.309Z,42.98
2019-04-11T19:30:36.389Z,40.98
2019-04-11T19:33:06.401Z,43.40
2019-04-11T19:35:36.518Z,39.67
2019-04-11T19:38:12.012Z,41.83
2019-04-11T19:40:41.151Z,41.35
2019-04-11T19:43:11.276Z,39.85
2019-04-11T19:45:41.296Z,41.18
2019-04-11T19:48:11.250Z,44.65
2019-04-11T19:50:41.251Z,42.43
2019-04-11T19:53:11.209Z,41.77
2019-04-11T19:55:47.560Z,41.42
2019-04-11T19:58:20.554Z,41.23
2019-04-11T20:00:53.084Z,42.33
2019-04-11T20:03:24.178Z,41.63
2019-04-11T20:05:53.916Z,42.33
2019-04-11T20:08:23.892Z,46.23
2019-04-11T20:10:53.914Z,44.48
2019-04-11T20:13:23.875Z,41.30
2019-04-11T20:15:53.922Z,43.92
2019-04-11T20:18:23.948Z,43.45
2019-04-11T20:20:53.904Z,42.45
2019-04-11T20:23:24.159Z,45.95
2019-04-11T20:25:54.164Z,41.33
2019-04-11T20:28:26.609Z,43.68
2019-04-11T20:30:56.827Z,49.13
2019-04-11T20:33:27.695Z,45.52
2019-04-11T20:35:58.175Z,49.58
2019-04-11T20:38:28.228Z,64.95
2019-04-11T20:40:59.134Z,82.67
2019-04-11T20:43:29.173Z,74.12
2019-04-11T20:45:59.449Z,65.95
2019-04-11T20:48:30.874Z,57.33
2019-04-11T20:51:01.105Z,51.85
2019-04-11T20:53:31.042Z,53.98
2019-04-11T20:56:00.984Z,48.65
2019-04-11T20:58:31.083Z,48.70
2019-04-11T21:01:01.111Z,49.60
2019-04-11T21:03:31.707Z,52.53
2019-04-11T21:06:02.530Z,51.28
2019-04-11T21:08:36.616Z,48.90
2019-04-11T21:11:05.667Z,52.05
2019-04-11T21:13:38.067Z,50.15
2019-04-11T21:16:07.303Z,48.20
2019-04-11T21:18:37.602Z,47.78
2019-04-11T21:21:07.605Z,46.80
2019-04-11T21:23:37.601Z,43.63
2019-04-11T21:26:08.010Z,45.92
2019-04-11T21:28:37.951Z,45.25
2019-04-11T21:31:07.876Z,42.55
2019-04-11T21:33:37.820Z,40.58
2019-04-11T21:36:07.770Z,45.43
2019-04-11T21:38:37.683Z,45.83
2019-04-11T21:41:08.463Z,46.20
2019-04-11T21:43:38.606Z,44.23
2019-04-11T21:46:08.608Z,42.67
2019-04-11T21:48:38.613Z,47.83
2019-04-11T21:51:11.385Z,50.75
2019-04-11T21:53:44.411Z,46.23
2019-04-11T21:56:12.863Z,50.20
2019-04-11T21:58:42.954Z,56.95
2019-04-11T22:01:14.934Z,53.60
2019-04-11T22:03:46.577Z,55.35
2019-04-11T22:06:16.566Z,52.30
2019-04-11T22:08:46.708Z,51.40
2019-04-11T22:11:16.626Z,53.08
2019-04-11T22:13:46.559Z,51.70
2019-04-11T22:16:16.518Z,53.95
2019-04-11T22:18:46.545Z,51.77
2019-04-11T22:21:16.541Z,49.80
2019-04-11T22:23:48.854Z,48.48
2019-04-11T22:26:17.885Z,43.50
2019-04-11T22:28:47.844Z,37.20
2019-04-11T22:31:17.466Z,39.10
2019-04-11T22:33:48.957Z,38.23
2019-04-11T22:36:18.628Z,41.68
2019-04-11T22:38:48.492Z,38.53
2019-04-11T22:41:19.433Z,34.18
2019-04-11T22:43:49.114Z,33.25
2019-04-11T22:46:20.999Z,31.00
2019-04-11T22:48:50.230Z,28.12
2019-04-11T22:51:20.250Z,35.28
2019-04-11T22:53:59.979Z,32.73
2019-04-11T22:56:21.795Z,38.00
2019-04-11T22:58:51.808Z,53.13
2019-04-11T23:01:21.831Z,56.50
2019-04-11T23:04:02.089Z,48.35
2019-04-11T23:06:32.027Z,41.63
2019-04-11T23:09:02.317Z,45.83
2019-04-11T23:11:33.871Z,38.92
2019-04-11T23:14:03.886Z,35.85
2019-04-11T23:16:33.926Z,35.38
2019-04-11T23:19:04.149Z,36.98
2019-04-11T23:21:34.343Z,40.45
2019-04-11T23:24:11.878Z,45.45
2019-04-11T23:26:36.075Z,36.15
2019-04-11T23:29:06.118Z,39.40
2019-04-11T23:31:36.055Z,40.92
2019-04-11T23:34:06.070Z,36.38
2019-04-11T23:36:36.030Z,35.88
2019-04-11T23:39:06.921Z,36.23
2019-04-11T23:41:38.474Z,34.48
2019-04-11T23:44:08.417Z,42.60
2019-04-11T23:46:38.364Z,42.70
2019-04-11T23:49:08.330Z,44.88
2019-04-11T23:51:38.256Z,41.70
2019-04-11T23:54:08.238Z,43.73
2019-04-11T23:56:38.182Z,42.40
2019-04-11T23:59:08.125Z,45.73
